Time;durP1;ratioP1;P1;durP2;ratioP2;P2;SDS_P1;SDS_P2;PMS_P1;PMS_P2;Temp;Humidity;BMP_temperature;BMP_pressure;BME280_temperature;BME280_humidity;BME280_pressure;Samples;Min_cycle;Max_cycle;Signal;HPM_P1;HPM_P2
2022/06/23 00:00:40;;;;;;;3.65;3.00;;;13.30;99.90;;;;;;5132914;27;20103;-89
2022/06/23 00:03:06;;;;;;;4.95;3.15;;;13.30;99.90;;;;;;5131041;27;20126;-89
2022/06/23 00:05:39;;;;;;;3.95;3.10;;;13.30;99.90;;;;;;5114825;27;20043;-88
2022/06/23 00:08:09;;;;;;;6.93;3.08;;;13.20;99.90;;;;;;5130036;27;20051;-89
2022/06/23 00:10:44;;;;;;;3.47;3.05;;;13.20;99.90;;;;;;5133150;27;20084;-88
2022/06/23 00:13:33;;;;;;;4.57;3.40;;;13.20;99.90;;;;;;5137607;27;20054;-89
2022/06/23 00:15:59;;;;;;;5.05;3.78;;;13.20;99.90;;;;;;5114547;27;20053;-89
2022/06/23 00:18:30;;;;;;;4.28;3.10;;;13.20;99.90;;;;;;5131710;27;20031;-89
2022/06/23 00:21:01;;;;;;;6.00;3.70;;;13.20;99.90;;;;;;5131141;27;20119;-88
2022/06/23 00:23:31;;;;;;;4.65;3.53;;;13.10;99.90;;;;;;5133864;27;20043;-88
2022/06/23 00:26:09;;;;;;;4.20;3.60;;;14.20;99.90;;;;;;5135073;27;20145;-89
2022/06/23 00:28:42;;;;;;;3.90;3.47;;;13.10;99.90;;;;;;5113156;27;20043;-88
2022/06/23 00:31:28;;;;;;;4.38;3.60;;;13.10;99.90;;;;;;5114356;27;20043;-88
2022/06/23 00:33:55;;;;;;;5.80;3.58;;;13.10;99.90;;;;;;5130870;27;20051;-89
2022/06/23 00:36:26;;;;;;;5.97;4.07;;;13.10;99.90;;;;;;5131492;27;20051;-89
2022/06/23 00:38:52;;;;;;;5.53;3.80;;;13.00;99.90;;;;;;5130763;27;20043;-90
2022/06/23 00:41:22;;;;;;;5.80;4.55;;;13.00;99.90;;;;;;5130767;27;20173;-90
2022/06/23 00:43:51;;;;;;;6.15;4.30;;;13.00;99.90;;;;;;5114500;27;20043;-88
2022/06/23 00:46:31;;;;;;;4.13;3.28;;;13.00;99.90;;;;;;5113683;27;20065;-88
2022/06/23 00:49:29;;;;;;;4.75;3.88;;;13.00;99.90;;;;;;5113507;27;20046;-89
2022/06/23 00:52:00;;;;;;;4.70;3.80;;;12.90;99.90;;;;;;5113747;27;20046;-88
2022/06/23 00:54:35;;;;;;;6.43;3.13;;;12.90;99.90;;;;;;5130772;27;20583;-87
2022/06/23 00:57:26;;;;;;;3.40;3.10;;;12.90;99.90;;;;;;5114726;27;20047;-88
2022/06/23 01:00:10;;;;;;;6.90;3.65;;;12.90;99.90;;;;;;5112737;27;20050;-88
2022/06/23 01:02:42;;;;;;;6.05;4.28;;;12.80;99.90;;;;;;5131011;27;20047;-88
2022/06/23 01:05:28;;;;;;;6.50;3.80;;;12.80;99.90;;;;;;5114493;27;20045;-89
2022/06/23 01:08:07;;;;;;;4.30;3.90;;;12.80;99.90;;;;;;5130365;27;20071;-88
2022/06/23 01:10:37;;;;;;;5.30;3.95;;;12.80;99.90;;;;;;5130766;27;20047;-88
2022/06/23 01:13:18;;;;;;;5.40;3.67;;;12.70;99.90;;;;;;5130628;27;20474;-88
2022/06/23 01:15:51;;;;;;;5.30;4.50;;;12.70;99.90;;;;;;5130428;27;20039;-87
2022/06/23 01:18:19;;;;;;;4.20;3.80;;;12.70;99.90;;;;;;5131599;27;20043;-89
2022/06/23 01:20:51;;;;;;;7.78;4.68;;;12.70;99.90;;;;;;5113294;27;20534;-89
2022/06/23 01:23:19;;;;;;;6.03;3.63;;;12.70;99.90;;;;;;5132196;27;20046;-89
2022/06/23 01:26:03;;;;;;;4.65;3.95;;;12.70;99.90;;;;;;5114429;27;20051;-88
2022/06/23 01:28:36;;;;;;;5.10;4.20;;;12.70;99.90;;;;;;5136958;27;20043;-89
2022/06/23 01:31:19;;;;;;;4.35;3.60;;;12.70;99.90;;;;;;5120367;27;20043;-88
2022/06/23 01:33:57;;;;;;;5.00;4.07;;;12.60;99.90;;;;;;5140532;27;20051;-89
2022/06/23 01:36:31;;;;;;;5.65;4.82;;;12.60;99.90;;;;;;5116144;27;20047;-89
2022/06/23 01:39:01;;;;;;;6.88;4.65;;;12.60;99.90;;;;;;5116222;27;20050;-89
2022/06/23 01:41:42;;;;;;;6.63;4.90;;;12.60;99.90;;;;;;5115990;27;20504;-89
2022/06/23 01:44:08;;;;;;;9.38;4.75;;;12.60;99.90;;;;;;5135197;27;20050;-90
2022/06/23 01:46:39;;;;;;;5.70;4.50;;;12.60;99.90;;;;;;5116237;27;20047;-89
2022/06/23 01:49:15;;;;;;;6.88;5.18;;;12.50;99.90;;;;;;5135676;27;20039;-90
2022/06/23 01:51:49;;;;;;;7.22;5.07;;;12.50;99.90;;;;;;5139947;27;20126;-88
2022/06/23 01:54:21;;;;;;;9.43;5.35;;;12.60;99.90;;;;;;5122343;27;20428;-88
2022/06/23 01:57:11;;;;;;;7.32;4.85;;;12.50;99.90;;;;;;5140306;27;20039;-87
2022/06/23 02:00:03;;;;;;;7.30;5.32;;;12.50;99.90;;;;;;5135986;27;20047;-88
2022/06/23 02:02:47;;;;;;;7.68;4.78;;;12.50;99.90;;;;;;5119044;27;20047;-88
2022/06/23 02:05:32;;;;;;;6.97;5.30;;;12.50;99.90;;;;;;5121273;27;20068;-88
2022/06/23 02:08:31;;;;;;;7.35;5.72;;;12.60;99.90;;;;;;5116763;28;20120;-89
2022/06/23 02:11:31;;;;;;;6.85;5.18;;;12.60;99.90;;;;;;5114935;28;20047;-89
2022/06/23 02:14:19;;;;;;;6.00;5.03;;;12.60;99.90;;;;;;5114445;28;20031;-88
2022/06/23 02:16:51;;;;;;;6.43;5.05;;;12.60;99.90;;;;;;5128945;28;20125;-89
2022/06/23 02:19:39;;;;;;;5.88;5.00;;;12.70;99.90;;;;;;5113320;28;20501;-88
2022/06/23 02:22:23;;;;;;;9.63;5.93;;;12.70;99.90;;;;;;5130186;28;20047;-88
2022/06/23 02:25:16;;;;;;;6.82;5.97;;;12.60;99.90;;;;;;5129522;28;20070;-88
2022/06/23 02:27:59;;;;;;;7.50;5.22;;;12.70;99.90;;;;;;5119579;28;20061;-88
2022/06/23 02:30:34;;;;;;;5.95;4.53;;;12.70;99.90;;;;;;5112525;27;20083;-89
2022/06/23 02:33:10;;;;;;;6.82;5.03;;;12.60;99.90;;;;;;5115330;27;20055;-87
2022/06/23 02:35:51;;;;;;;7.47;5.53;;;12.60;99.90;;;;;;5134561;27;20089;-89
2022/06/23 02:38:35;;;;;;;9.40;5.75;;;12.60;99.90;;;;;;5132610;27;20079;-87
2022/06/23 02:41:18;;;;;;;10.43;6.05;;;12.60;99.90;;;;;;5132975;27;20096;-88
2022/06/23 02:44:19;;;;;;;8.95;5.50;;;12.60;99.90;;;;;;5133998;27;20063;-88
2022/06/23 02:47:12;;;;;;;9.52;5.75;;;12.60;99.90;;;;;;5132052;27;20061;-89
2022/06/23 02:49:50;;;;;;;6.90;5.38;;;12.60;99.90;;;;;;5116478;27;20046;-88
2022/06/23 02:52:36;;;;;;;11.27;6.50;;;12.50;99.90;;;;;;5133876;27;20147;-88
2022/06/23 02:55:11;;;;;;;11.35;5.75;;;12.50;99.90;;;;;;5132010;27;20077;-89
2022/06/23 02:57:40;;;;;;;6.95;5.75;;;12.50;99.90;;;;;;5133489;27;20047;-89
2022/06/23 03:00:15;;;;;;;8.30;5.22;;;12.50;99.90;;;;;;5115104;27;20043;-89
2022/06/23 03:03:04;;;;;;;9.77;6.10;;;12.50;99.90;;;;;;5115782;27;20414;-88
2022/06/23 03:05:32;;;;;;;7.93;5.65;;;12.40;99.90;;;;;;5134401;27;20047;-88
2022/06/23 03:08:04;;;;;;;7.53;6.10;;;12.50;99.90;;;;;;5131856;27;20039;-88
2022/06/23 03:11:06;;;;;;;8.15;6.15;;;12.50;99.90;;;;;;5116517;27;20075;-88
2022/06/23 03:13:35;;;;;;;10.30;5.70;;;12.50;99.90;;;;;;5062972;27;20095;-89
2022/06/23 03:16:22;;;;;;;9.00;6.03;;;12.50;99.90;;;;;;5116013;27;20054;-89
2022/06/23 03:19:02;;;;;;;8.95;6.38;;;12.40;99.90;;;;;;5134673;27;20521;-87
2022/06/23 03:21:48;;;;;;;7.40;5.78;;;12.40;99.90;;;;;;5134734;27;20043;-89
2022/06/23 03:24:37;;;;;;;7.45;5.78;;;12.40;99.90;;;;;;5132931;27;20402;-88
2022/06/23 03:27:19;;;;;;;9.25;5.65;;;12.50;99.90;;;;;;5133010;27;20053;-88
2022/06/23 03:29:53;;;;;;;7.88;5.88;;;13.30;99.90;;;;;;5131593;27;20110;-90
2022/06/23 03:32:42;;;;;;;9.05;6.47;;;12.40;99.90;;;;;;5116197;27;20043;-86
2022/06/23 03:35:24;;;;;;;8.75;5.63;;;12.40;99.90;;;;;;5128479;27;20092;-89
2022/06/23 03:38:01;;;;;;;11.90;6.40;;;12.40;99.90;;;;;;5136311;27;20043;-90
2022/06/23 03:43:35;;;;;;;15.05;6.88;;;12.10;99.90;;;;;;5138778;27;20427;-89
2022/06/23 03:46:14;;;;;;;11.43;7.07;;;12.50;99.90;;;;;;5125649;27;20047;-90
2022/06/23 03:48:45;;;;;;;9.70;6.35;;;12.60;99.90;;;;;;5137894;27;20047;-89
2022/06/23 03:51:33;;;;;;;9.85;6.80;;;13.40;99.90;;;;;;5135614;27;20058;-88
2022/06/23 03:54:13;;;;;;;9.10;5.88;;;12.60;99.90;;;;;;5137636;27;20043;-88
2022/06/23 03:56:47;;;;;;;10.10;6.57;;;12.70;99.90;;;;;;5120958;27;20051;-89
2022/06/23 03:59:16;;;;;;;12.50;7.00;;;12.70;99.90;;;;;;5136209;27;20046;-89
2022/06/23 04:01:55;;;;;;;9.05;6.53;;;12.80;99.90;;;;;;5123918;27;20085;-89
2022/06/23 04:04:41;;;;;;;11.77;7.93;;;12.80;99.90;;;;;;5142727;27;20453;-89
2022/06/23 04:07:46;;;;;;;12.00;7.28;;;12.90;99.90;;;;;;5141092;27;20047;-88
2022/06/23 04:10:18;;;;;;;9.73;6.85;;;12.90;99.90;;;;;;5122807;27;20043;-89
2022/06/23 04:12:48;;;;;;;9.30;6.50;;;13.00;99.90;;;;;;5119943;27;20039;-88
2022/06/23 04:15:28;;;;;;;11.43;6.80;;;13.10;99.90;;;;;;5123012;27;20050;-91
2022/06/23 04:18:01;;;;;;;9.63;7.28;;;13.10;99.90;;;;;;5135855;27;20076;-89
2022/06/23 04:21:07;;;;;;;14.73;8.30;;;13.20;99.90;;;;;;5137739;27;20039;-87
2022/06/23 04:23:36;;;;;;;14.52;7.07;;;13.20;99.90;;;;;;5039106;28;20393;-89
2022/06/23 04:26:32;;;;;;;11.60;6.97;;;13.30;99.90;;;;;;5126365;27;20522;-90
2022/06/23 04:29:22;;;;;;;11.75;7.55;;;13.40;99.90;;;;;;5138492;27;20096;-90
2022/06/23 04:32:23;;;;;;;11.43;7.15;;;13.40;99.90;;;;;;5121160;27;20043;-89
2022/06/23 04:35:16;;;;;;;10.30;7.10;;;13.60;99.90;;;;;;5088403;27;20116;-89
2022/06/23 04:38:19;;;;;;;12.10;7.30;;;13.60;99.90;;;;;;5137895;27;20043;-91
2022/06/23 04:40:53;;;;;;;12.18;7.53;;;13.70;99.90;;;;;;5120943;27;20049;-90
2022/06/23 04:43:31;;;;;;;9.90;7.28;;;13.70;99.90;;;;;;5118258;27;20220;-93
2022/06/23 04:46:15;;;;;;;9.52;6.78;;;13.80;99.90;;;;;;5132433;27;20095;-89
2022/06/23 04:48:54;;;;;;;10.25;6.78;;;13.90;99.90;;;;;;5111522;27;20051;-89
2022/06/23 04:51:35;;;;;;;9.90;6.75;;;14.00;99.90;;;;;;5111626;27;20055;-87
2022/06/23 04:54:06;;;;;;;9.23;7.07;;;14.00;99.90;;;;;;5129595;27;20055;-88
2022/06/23 04:56:38;;;;;;;13.27;7.30;;;14.10;99.90;;;;;;5127476;27;20053;-88
2022/06/23 04:59:15;;;;;;;9.82;6.75;;;14.20;99.90;;;;;;5130309;27;20074;-91
2022/06/23 05:01:44;;;;;;;10.30;7.93;;;14.30;99.90;;;;;;5129398;27;20513;-91
2022/06/23 05:04:40;;;;;;;14.77;6.80;;;14.30;99.90;;;;;;5111368;27;20510;-93
2022/06/23 05:07:27;;;;;;;14.25;7.22;;;14.40;99.90;;;;;;5113019;27;20137;-92
2022/06/23 05:09:59;;;;;;;8.57;6.70;;;14.50;99.90;;;;;;5111238;27;20501;-91
2022/06/23 05:12:33;;;;;;;7.35;5.97;;;14.60;99.90;;;;;;5112320;27;20047;-92
2022/06/23 05:15:17;;;;;;;9.57;7.13;;;14.60;99.90;;;;;;5130180;27;20125;-90
2022/06/23 05:17:53;;;;;;;8.85;6.45;;;14.80;99.90;;;;;;5127769;27;20493;-90
2022/06/23 05:20:39;;;;;;;9.95;6.22;;;14.80;99.90;;;;;;5129572;27;20053;-87
2022/06/23 05:23:06;;;;;;;10.10;6.22;;;14.90;99.90;;;;;;5128632;27;20043;-88
2022/06/23 05:25:43;;;;;;;11.23;6.60;;;15.00;99.90;;;;;;5127519;27;20042;-90
2022/06/23 05:28:17;;;;;;;8.43;7.07;;;15.10;99.90;;;;;;5131663;27;20050;-92
2022/06/23 05:30:50;;;;;;;11.07;6.93;;;15.20;99.90;;;;;;5132862;27;20043;-92
2022/06/23 05:33:22;;;;;;;10.27;7.00;;;15.40;99.90;;;;;;5130882;27;20482;-90
2022/06/23 05:36:03;;;;;;;8.50;6.50;;;15.40;99.90;;;;;;5129145;27;20066;-84
2022/06/23 05:38:50;;;;;;;8.20;6.28;;;15.50;99.90;;;;;;5127535;27;20051;-87
2022/06/23 05:41:27;;;;;;;9.70;7.07;;;15.60;99.90;;;;;;5128613;27;20079;-85
2022/06/23 05:43:56;;;;;;;7.10;6.22;;;15.60;99.90;;;;;;5109069;27;20050;-88
2022/06/23 05:46:24;;;;;;;10.75;7.20;;;15.70;99.90;;;;;;5112976;27;20404;-89
2022/06/23 05:49:01;;;;;;;15.00;6.50;;;15.80;99.90;;;;;;5127221;27;20087;-84
2022/06/23 05:52:00;;;;;;;7.50;6.38;;;16.00;99.90;;;;;;5126511;27;20047;-84
2022/06/23 05:54:34;;;;;;;7.57;5.93;;;16.00;99.90;;;;;;5129087;27;20398;-90
2022/06/23 05:57:15;;;;;;;8.48;6.85;;;16.20;99.90;;;;;;5135459;27;20039;-91
2022/06/23 06:00:00;;;;;;;7.28;6.10;;;16.30;99.90;;;;;;5123746;27;20039;-86
2022/06/23 06:02:38;;;;;;;10.98;7.13;;;16.40;99.90;;;;;;5113523;28;20125;-86
2022/06/23 06:05:05;;;;;;;9.93;6.97;;;16.50;99.90;;;;;;5109666;27;20078;-86
2022/06/23 06:07:40;;;;;;;10.30;6.60;;;16.60;99.90;;;;;;5112464;27;20053;-96
2022/06/23 06:10:15;;;;;;;11.80;6.55;;;16.70;99.90;;;;;;5129188;27;20047;-96
2022/06/23 06:12:43;;;;;;;7.68;6.05;;;16.80;99.90;;;;;;5112360;28;20486;-96
2022/06/23 06:15:18;;;;;;;11.40;7.38;;;16.90;99.90;;;;;;5112324;28;20044;-95
2022/06/23 06:17:45;;;;;;;13.45;7.60;;;17.00;99.90;;;;;;5111744;28;20036;-96
2022/06/23 06:20:13;;;;;;;12.32;7.07;;;17.10;99.90;;;;;;5079932;28;20043;-96
2022/06/23 06:23:09;;;;;;;8.52;6.80;;;17.20;99.90;;;;;;5110516;28;20043;-96
2022/06/23 06:25:43;;;;;;;7.90;6.72;;;17.30;99.90;;;;;;5128305;28;20130;-96
2022/06/23 06:28:18;;;;;;;12.45;7.10;;;17.40;99.90;;;;;;5129550;28;20043;-96
2022/06/23 06:31:16;;;;;;;11.05;7.60;;;17.60;99.90;;;;;;5128102;28;20157;-96
2022/06/23 06:33:53;;;;;;;9.10;6.35;;;17.60;99.90;;;;;;5095867;28;20134;-96
2022/06/23 06:36:41;;;;;;;11.60;6.70;;;17.70;99.90;;;;;;5129587;28;20043;-95
2022/06/23 06:39:14;;;;;;;16.70;6.60;;;17.80;99.90;;;;;;5110957;28;20036;-96
2022/06/23 06:41:43;;;;;;;11.18;5.95;;;17.90;99.90;;;;;;5113019;28;20035;-95
2022/06/23 06:44:11;;;;;;;6.80;5.93;;;18.00;99.90;;;;;;5111435;28;20054;-96
2022/06/23 06:46:39;;;;;;;9.05;5.53;;;18.10;99.90;;;;;;5112455;28;20051;-95
2022/06/23 06:49:08;;;;;;;11.15;6.22;;;18.20;99.90;;;;;;5128250;28;20096;-89
2022/06/23 06:51:34;;;;;;;9.88;5.40;;;18.30;99.90;;;;;;5109921;28;20039;-85
2022/06/23 06:54:06;;;;;;;7.30;5.10;;;18.50;99.90;;;;;;5078264;28;20051;-89
2022/06/23 06:56:41;;;;;;;6.27;4.40;;;18.60;99.90;;;;;;5126940;28;20229;-89
2022/06/23 06:59:18;;;;;;;8.07;5.78;;;18.70;99.90;;;;;;5111726;28;20046;-90
2022/06/23 07:01:49;;;;;;;9.10;5.43;;;18.80;99.90;;;;;;5128022;28;20130;-89
2022/06/23 07:04:30;;;;;;;9.48;5.65;;;18.90;99.90;;;;;;5112077;28;20039;-89
2022/06/23 07:07:01;;;;;;;6.95;5.25;;;18.90;99.90;;;;;;5130645;28;20024;-89
2022/06/23 07:09:41;;;;;;;9.18;5.07;;;19.00;99.90;;;;;;5150384;28;20028;-89
2022/06/23 07:12:21;;;;;;;11.13;4.70;;;19.10;99.90;;;;;;5152458;28;20019;-89
2022/06/23 07:15:09;;;;;;;6.38;4.80;;;19.20;99.90;;;;;;5123132;28;20378;-88
2022/06/23 07:17:43;;;;;;;8.32;5.00;;;19.30;99.90;;;;;;5131258;27;20406;-89
2022/06/23 07:20:47;;;;;;;7.47;4.65;;;19.50;99.90;;;;;;5134664;27;20371;-89
2022/06/23 07:23:19;;;;;;;8.02;5.05;;;19.60;99.90;;;;;;5026902;27;20067;-88
2022/06/23 07:25:49;;;;;;;6.95;4.40;;;19.60;99.90;;;;;;5130364;27;20039;-89
2022/06/23 07:28:18;;;;;;;7.90;5.28;;;19.70;99.90;;;;;;5131801;27;20043;-89
2022/06/23 07:30:52;;;;;;;8.27;5.07;;;19.90;99.90;;;;;;5113100;27;20092;-90
2022/06/23 07:33:25;;;;;;;4.93;3.72;;;19.90;99.90;;;;;;5132691;27;20047;-89
2022/06/23 07:36:16;;;;;;;6.57;4.45;;;20.00;99.90;;;;;;5130500;27;20071;-89
2022/06/23 07:38:47;;;;;;;9.45;3.83;;;20.10;99.90;;;;;;5130239;27;20402;-89
2022/06/23 07:41:16;;;;;;;6.80;4.22;;;20.30;99.90;;;;;;5114373;27;20039;-89
2022/06/23 07:44:03;;;;;;;7.75;4.25;;;20.40;99.90;;;;;;5129464;27;20043;-89
2022/06/23 07:46:31;;;;;;;7.97;4.70;;;20.50;99.90;;;;;;5113349;27;20089;-89
2022/06/23 07:48:57;;;;;;;5.50;3.97;;;20.70;99.90;;;;;;5131418;27;20058;-90
2022/06/23 07:51:24;;;;;;;5.05;4.35;;;20.80;99.90;;;;;;5132060;27;20365;-89
2022/06/23 07:53:51;;;;;;;8.25;4.15;;;20.90;99.90;;;;;;5129447;27;20042;-88
2022/06/23 07:56:20;;;;;;;7.63;4.30;;;21.00;99.90;;;;;;5137589;27;20047;-89
2022/06/23 07:58:49;;;;;;;5.45;3.55;;;21.10;99.90;;;;;;5131776;27;20080;-89
2022/06/23 08:01:33;;;;;;;5.30;3.72;;;21.20;99.90;;;;;;5129341;27;20180;-88
2022/06/23 08:04:05;;;;;;;6.05;3.50;;;21.30;99.90;;;;;;5129581;27;20043;-88
2022/06/23 08:06:33;;;;;;;;;;;21.50;99.90;;;;;;5113450;27;20039;-89
2022/06/23 08:09:16;;;;;;;6.00;3.90;;;21.50;99.90;;;;;;5128421;27;20381;-89
2022/06/23 08:14:33;;;;;;;5.50;3.53;;;21.80;99.90;;;;;;5129421;27;20039;-88
2022/06/23 08:17:04;;;;;;;5.07;3.92;;;22.00;99.90;;;;;;5112333;27;20047;-87
2022/06/23 08:19:57;;;;;;;5.50;3.60;;;22.10;99.90;;;;;;5096409;27;20133;-88
2022/06/23 08:22:30;;;;;;;5.90;4.25;;;22.30;99.90;;;;;;5100653;27;20051;-88
2022/06/23 08:24:58;;;;;;;6.00;3.80;;;22.40;99.90;;;;;;5130343;27;20050;-88
2022/06/23 08:27:28;;;;;;;5.18;3.72;;;22.60;99.90;;;;;;5128817;27;20099;-88
2022/06/23 08:30:02;;;;;;;7.10;4.38;;;22.70;99.90;;;;;;5128432;27;20039;-88
2022/06/23 08:32:29;;;;;;;9.77;4.13;;;22.80;99.90;;;;;;5112752;27;20050;-88
2022/06/23 08:35:24;;;;;;;4.97;4.20;;;22.90;99.90;;;;;;5111251;27;20486;-87
2022/06/23 08:38:05;;;;;;;5.70;3.72;;;23.00;99.90;;;;;;5127378;27;20039;-88
2022/06/23 08:41:12;;;;;;;8.00;4.30;;;23.10;99.90;;;;;;5111905;27;20055;-86
2022/06/23 08:43:56;;;;;;;5.55;3.85;;;23.30;99.90;;;;;;5127691;27;20082;-86
2022/06/23 08:46:34;;;;;;;6.30;3.88;;;23.40;99.90;;;;;;5112115;27;20326;-86
2022/06/23 08:49:22;;;;;;;6.53;3.67;;;23.50;99.90;;;;;;5128626;27;20475;-86
2022/06/23 08:52:04;;;;;;;4.68;3.42;;;23.60;99.90;;;;;;5127728;27;20054;-86
2022/06/23 08:54:43;;;;;;;8.80;3.50;;;23.70;99.90;;;;;;5112497;27;20043;-87
2022/06/23 08:57:23;;;;;;;6.15;3.50;;;23.80;99.90;;;;;;5127616;27;20126;-86
2022/06/23 09:00:17;;;;;;;4.45;4.05;;;23.90;99.90;;;;;;5128244;27;20043;-87
2022/06/23 09:02:50;;;;;;;5.25;3.63;;;24.00;99.90;;;;;;5129293;27;20091;-86
2022/06/23 09:05:31;;;;;;;5.97;3.97;;;24.20;99.90;;;;;;5110537;27;20488;-86
2022/06/23 09:08:53;;;;;;;8.35;3.40;;;24.30;99.90;;;;;;5128496;27;20047;-87
2022/06/23 09:11:26;;;;;;;4.38;2.88;;;24.40;99.90;;;;;;5029865;28;20049;-86
2022/06/23 09:14:12;;;;;;;6.22;3.25;;;24.60;99.90;;;;;;5012739;28;20167;-86
2022/06/23 09:16:58;;;;;;;5.75;3.40;;;24.60;99.90;;;;;;5089393;27;20060;-87
2022/06/23 09:19:57;;;;;;;5.22;3.15;;;24.80;99.90;;;;;;5076739;27;20188;-87
2022/06/23 09:22:32;;;;;;;3.83;2.70;;;25.00;99.90;;;;;;5127041;27;20054;-86
2022/06/23 09:25:19;;;;;;;4.38;2.67;;;25.10;99.90;;;;;;5128625;27;20074;-87
2022/06/23 09:28:08;;;;;;;11.07;3.13;;;25.30;99.90;;;;;;5128133;27;20144;-87
2022/06/23 09:30:42;;;;;;;5.40;2.95;;;25.40;99.90;;;;;;5127145;27;20050;-86
2022/06/23 09:33:20;;;;;;;4.72;4.05;;;25.50;99.90;;;;;;5112332;27;20047;-87
2022/06/23 09:36:07;;;;;;;9.13;2.83;;;25.60;99.90;;;;;;5113113;27;20080;-87
2022/06/23 09:38:51;;;;;;;3.97;2.75;;;25.80;99.90;;;;;;5130589;27;20605;-87
2022/06/23 09:41:45;;;;;;;4.32;2.25;;;25.90;99.90;;;;;;5131903;27;20043;-87
2022/06/23 09:44:42;;;;;;;8.35;2.40;;;26.00;99.90;;;;;;5131158;27;20047;-87
2022/06/23 09:47:22;;;;;;;2.33;1.90;;;26.20;99.90;;;;;;5096081;27;20069;-86
2022/06/23 09:50:15;;;;;;;4.30;2.38;;;26.30;99.90;;;;;;5119795;27;20092;-87
2022/06/23 09:52:53;;;;;;;3.60;2.08;;;26.40;99.90;;;;;;5143083;27;20031;-87
2022/06/23 09:55:38;;;;;;;5.22;2.00;;;26.50;99.90;;;;;;5128836;27;20039;-87
2022/06/23 09:58:10;;;;;;;4.82;2.35;;;26.60;99.00;;;;;;5149411;27;20055;-87
2022/06/23 10:00:51;;;;;;;3.03;1.77;;;26.70;99.90;;;;;;5124705;27;20039;-87
2022/06/23 10:03:37;;;;;;;3.45;1.90;;;26.80;99.80;;;;;;5136295;27;20066;-87
2022/06/23 10:06:05;;;;;;;3.20;1.80;;;26.90;99.90;;;;;;5135139;27;20031;-87
2022/06/23 10:08:39;;;;;;;4.50;1.85;;;27.00;99.80;;;;;;5151455;27;20130;-86
2022/06/23 10:11:19;;;;;;;4.18;1.63;;;27.10;96.10;;;;;;5136549;27;20027;-86
2022/06/23 10:14:03;;;;;;;5.43;1.58;;;27.20;97.60;;;;;;5134889;28;20064;-88
2022/06/23 10:16:54;;;;;;;2.30;1.60;;;27.30;95.60;;;;;;5153221;27;20042;-86
2022/06/23 10:19:28;;;;;;;4.38;1.85;;;27.30;94.00;;;;;;5152744;28;20056;-87
2022/06/23 10:22:16;;;;;;;3.13;1.38;;;27.50;94.40;;;;;;5133880;28;20043;-88
2022/06/23 10:24:57;;;;;;;2.20;1.20;;;27.60;92.80;;;;;;5150453;28;20131;-87
2022/06/23 10:27:40;;;;;;;1.73;1.30;;;27.70;94.70;;;;;;5115787;28;20074;-87
2022/06/23 10:30:34;;;;;;;1.75;1.40;;;27.70;94.00;;;;;;5110379;28;20047;-85
2022/06/23 10:33:09;;;;;;;8.98;1.70;;;27.90;91.20;;;;;;5112127;28;20039;-86
2022/06/23 10:36:34;;;;;;;2.75;1.10;;;28.10;85.70;;;;;;5127582;28;20084;-86
2022/06/23 10:39:18;;;;;;;2.85;1.15;;;28.20;79.30;;;;;;5090728;28;20047;-87
2022/06/23 10:41:55;;;;;;;3.47;1.33;;;29.00;80.80;;;;;;5128866;28;20044;-87
2022/06/23 10:44:45;;;;;;;2.95;1.38;;;28.40;74.80;;;;;;5127579;28;20120;-87
2022/06/23 10:47:30;;;;;;;2.53;1.25;;;28.40;76.10;;;;;;5126842;28;20055;-87
2022/06/23 10:50:01;;;;;;;1.67;1.17;;;28.50;75.10;;;;;;5128611;28;20104;-87
2022/06/23 10:52:36;;;;;;;2.30;0.82;;;28.60;75.00;;;;;;5128353;27;20043;-87
2022/06/23 10:55:24;;;;;;;2.75;1.50;;;28.70;71.50;;;;;;5131876;27;20134;-87
2022/06/23 10:58:14;;;;;;;3.42;1.30;;;28.80;71.80;;;;;;5114500;27;20150;-87
2022/06/23 11:00:55;;;;;;;3.97;1.30;;;28.90;65.60;;;;;;5129851;27;20050;-86
2022/06/23 11:03:27;;;;;;;1.95;1.20;;;28.90;65.60;;;;;;5131157;27;20394;-87
2022/06/23 11:06:28;;;;;;;4.18;1.48;;;29.00;67.20;;;;;;5113639;27;20141;-86
2022/06/23 11:09:23;;;;;;;2.55;1.33;;;29.10;64.30;;;;;;5112634;27;20072;-85
2022/06/23 11:12:01;;;;;;;8.43;1.20;;;29.20;63.40;;;;;;5109102;27;20050;-83
2022/06/23 11:14:55;;;;;;;5.40;1.42;;;29.20;65.90;;;;;;5113147;27;20039;-85
2022/06/23 11:17:50;;;;;;;9.00;1.80;;;29.30;68.60;;;;;;5130140;27;20127;-83
2022/06/23 11:20:27;;;;;;;5.85;2.28;;;29.30;68.90;;;;;;5131239;27;20493;-85
2022/06/23 11:23:01;;;;;;;11.43;1.90;;;29.30;68.10;;;;;;5129892;27;20502;-86
2022/06/23 11:25:58;;;;;;;17.98;3.40;;;29.40;65.00;;;;;;5130495;27;20375;-87
2022/06/23 11:28:44;;;;;;;112.70;40.35;;;29.50;61.60;;;;;;5131097;27;20070;-89
2022/06/23 11:31:40;;;;;;;49.17;19.38;;;29.60;64.60;;;;;;5112298;27;20039;-85
2022/06/23 11:34:24;;;;;;;49.10;8.13;;;29.70;60.70;;;;;;5129231;27;20074;-85
2022/06/23 11:37:13;;;;;;;32.40;5.45;;;29.80;59.40;;;;;;5113251;27;20050;-84
2022/06/23 11:39:45;;;;;;;9.43;2.10;;;29.90;60.10;;;;;;5112282;27;20398;-85
2022/06/23 11:42:39;;;;;;;15.43;2.42;;;30.00;59.30;;;;;;5129602;27;20058;-83
2022/06/23 11:45:24;;;;;;;19.80;3.42;;;30.10;57.40;;;;;;5129875;27;20578;-84
2022/06/23 11:48:42;;;;;;;3.47;1.50;;;30.20;58.00;;;;;;5128364;27;20054;-83
2022/06/23 11:51:13;;;;;;;13.65;2.35;;;30.30;59.20;;;;;;5073454;27;20047;-87
2022/06/23 11:53:49;;;;;;;9.25;1.98;;;30.50;59.00;;;;;;5131026;27;20076;-83
2022/06/23 11:56:44;;;;;;;9.48;2.42;;;30.60;57.70;;;;;;5111606;27;20047;-84
2022/06/23 11:59:30;;;;;;;3.83;1.25;;;30.70;54.10;;;;;;5129704;27;20039;-85
2022/06/23 12:01:56;;;;;;;57.38;7.45;;;30.80;56.10;;;;;;5130787;27;20051;-83
2022/06/23 12:04:28;;;;;;;11.23;3.08;;;30.90;56.30;;;;;;5128828;27;20388;-84
2022/06/23 12:07:00;;;;;;;9.57;2.50;;;31.00;55.50;;;;;;5113033;27;20043;-85
2022/06/23 12:09:29;;;;;;;;;;;31.00;55.20;;;;;;5131073;27;20089;-86
2022/06/23 12:11:57;;;;;;;4.50;1.88;;;31.10;53.80;;;;;;5113568;27;19919;-87
2022/06/23 12:14:24;;;;;;;9.70;1.67;;;31.20;55.60;;;;;;5112416;27;20521;-86
2022/06/23 12:17:26;;;;;;;4.95;1.50;;;31.20;54.20;;;;;;5130232;27;20039;-85
2022/06/23 12:20:06;;;;;;;5.20;1.17;;;31.30;53.70;;;;;;5113656;27;20062;-83
2022/06/23 12:22:44;;;;;;;2.67;1.25;;;31.40;52.00;;;;;;5128815;27;20092;-84
2022/06/23 12:25:45;;;;;;;1.55;0.88;;;31.50;51.50;;;;;;5128890;27;20041;-84
2022/06/23 12:28:17;;;;;;;4.43;1.30;;;31.60;52.10;;;;;;5129205;27;20126;-83
2022/06/23 12:31:02;;;;;;;2.55;1.20;;;31.60;51.90;;;;;;5127643;27;20043;-83
2022/06/23 12:33:38;;;;;;;2.80;0.85;;;31.70;51.20;;;;;;5129987;27;20497;-85
2022/06/23 12:36:20;;;;;;;2.33;0.77;;;31.80;51.00;;;;;;5129816;27;20454;-86
2022/06/23 12:38:54;;;;;;;3.20;0.60;;;31.90;49.10;;;;;;5122472;27;20047;-85
2022/06/23 12:41:30;;;;;;;2.58;1.13;;;32.00;49.70;;;;;;5129564;27;20457;-85
2022/06/23 12:44:27;;;;;;;1.50;0.90;;;32.00;49.90;;;;;;5128181;27;20057;-85
2022/06/23 12:47:13;;;;;;;5.68;0.88;;;32.20;50.20;;;;;;5128376;27;20590;-87
2022/06/23 12:49:50;;;;;;;2.33;0.90;;;32.40;49.50;;;;;;5130739;27;20199;-85
2022/06/23 12:52:49;;;;;;;3.85;1.33;;;32.50;48.90;;;;;;5128035;27;20494;-83
2022/06/23 12:55:33;;;;;;;2.67;0.95;;;32.70;47.90;;;;;;5127613;27;20047;-84
2022/06/23 12:58:14;;;;;;;5.43;1.20;;;32.80;45.90;;;;;;5127722;27;20454;-84
2022/06/23 13:01:13;;;;;;;5.65;0.90;;;32.90;46.70;;;;;;5128856;27;20122;-82
2022/06/23 13:03:56;;;;;;;2.53;1.52;;;32.90;43.10;;;;;;5129426;27;20061;-87
2022/06/23 13:06:25;;;;;;;4.85;0.77;;;32.90;43.50;;;;;;5129612;27;20080;-83
2022/06/23 13:09:18;;;;;;;5.82;0.98;;;32.80;44.80;;;;;;5129041;27;20051;-86
2022/06/23 13:12:07;;;;;;;1.00;0.70;;;32.90;44.60;;;;;;5129426;27;20169;-85
2022/06/23 13:14:59;;;;;;;0.70;0.50;;;33.00;43.80;;;;;;5128809;27;20414;-86
2022/06/23 13:17:47;;;;;;;4.93;0.87;;;33.10;44.00;;;;;;5128719;27;20047;-85
2022/06/23 13:20:34;;;;;;;0.70;0.65;;;33.20;43.40;;;;;;5131311;27;20059;-85
2022/06/23 13:23:13;;;;;;;3.05;0.85;;;33.40;43.60;;;;;;5127877;27;20043;-86
2022/06/23 13:25:56;;;;;;;4.95;0.93;;;33.40;42.90;;;;;;5128768;27;20607;-87
2022/06/23 13:28:33;;;;;;;3.20;0.80;;;33.40;42.00;;;;;;5129385;27;20068;-85
2022/06/23 13:31:10;;;;;;;1.13;0.80;;;33.50;43.60;;;;;;5128223;27;20166;-85
2022/06/23 13:33:59;;;;;;;4.10;1.60;;;33.50;43.00;;;;;;5127730;27;20043;-85
2022/06/23 13:36:45;;;;;;;2.75;1.00;;;33.50;42.20;;;;;;5129068;27;20074;-86
2022/06/23 13:39:36;;;;;;;2.70;1.23;;;33.50;42.00;;;;;;5126991;27;20240;-86
2022/06/23 13:42:17;;;;;;;2.10;1.00;;;33.40;40.90;;;;;;5128343;27;20055;-85
2022/06/23 13:44:49;;;;;;;2.97;1.00;;;33.40;42.20;;;;;;5128554;27;20506;-86
2022/06/23 13:47:23;;;;;;;1.40;0.80;;;33.50;41.80;;;;;;5125866;27;20056;-86
2022/06/23 13:49:55;;;;;;;3.65;1.25;;;33.60;41.80;;;;;;5134906;27;20047;-86
2022/06/23 13:52:45;;;;;;;1.30;0.77;;;33.60;41.30;;;;;;5133790;27;20511;-85
2022/06/23 13:55:23;;;;;;;3.00;0.95;;;33.70;41.70;;;;;;5129298;27;20184;-86
2022/06/23 13:58:05;;;;;;;1.95;0.90;;;33.80;42.10;;;;;;5128447;27;20051;-86